Time;durP1;ratioP1;P1;durP2;ratioP2;P2;SDS_P1;SDS_P2;PMS_P1;PMS_P2;Temp;Humidity;BMP_temperature;BMP_pressure;BME280_temperature;BME280_humidity;BME280_pressure;Samples;Min_cycle;Max_cycle;Signal;HPM_P1;HPM_P2
2023/03/17 00:01:34;;;;;;;;;;;;;;;4.54;100.00;100718.84;5111909;28;19922;-66
2023/03/17 00:04:00;;;;;;;;;;;;;;;4.53;100.00;100717.94;5100415;27;19938;-66
2023/03/17 00:06:29;;;;;;;;;;;;;;;4.54;100.00;100723.94;5093903;28;19963;-69
2023/03/17 00:08:56;;;;;;;;;;;;;;;4.53;100.00;100720.50;5091689;28;19920;-68
2023/03/17 00:11:22;;;;;;;;;;;;;;;4.55;100.00;100725.72;5090272;28;19977;-70
2023/03/17 00:13:47;;;;;;;;;;;;;;;4.46;100.00;100723.47;5091478;28;19912;-69
2023/03/17 00:16:17;;;;;;;;;;;;;;;4.45;100.00;100724.25;5091223;28;19912;-68
2023/03/17 00:18:43;;;;;;;;;;;;;;;4.47;100.00;100724.34;5091039;28;19912;-65
2023/03/17 00:21:11;;;;;;;;;;;;;;;4.43;100.00;100725.78;5092001;28;19962;-65
2023/03/17 00:23:36;;;;;;;;;;;;;;;4.40;100.00;100729.81;5111718;28;20501;-66
2023/03/17 00:26:02;;;;;;;;;;;;;;;4.42;100.00;100723.16;5110888;28;20002;-68
2023/03/17 00:28:27;;;;;;;;;;;;;;;4.43;100.00;100730.91;5111592;28;20014;-66
2023/03/17 00:30:57;;;;;;;;;;;;;;;4.42;100.00;100731.69;5111204;28;20404;-68
2023/03/17 00:33:25;;;;;;;;;;;;;;;4.46;100.00;100735.34;5111073;28;19922;-68
2023/03/17 00:35:51;;;;;;;;;;;;;;;4.45;100.00;100726.78;5110818;28;19918;-67
2023/03/17 00:38:17;;;;;;;;;;;;;;;4.43;100.00;100730.03;5111142;28;19934;-68
2023/03/17 00:40:44;;;;;;;;;;;;;;;4.47;100.00;100729.44;5110630;28;20002;-68
2023/03/17 00:43:10;;;;;;;;;;;;;;;4.41;100.00;100736.72;5111219;28;19911;-67
2023/03/17 00:45:36;;;;;;;;;;;;;;;4.42;100.00;100734.25;5110682;28;20007;-69
2023/03/17 00:48:02;;;;;;;;;;;;;;;4.40;100.00;100734.94;5111319;28;19912;-67
2023/03/17 00:50:27;;;;;;;;;;;;;;;4.34;100.00;100731.19;5110792;28;19927;-68
2023/03/17 00:52:54;;;;;;;;;;;;;;;4.29;100.00;100730.00;5110758;28;19943;-66
2023/03/17 00:55:21;;;;;;;;;;;;;;;4.31;100.00;100732.66;5110756;28;19915;-67
2023/03/17 00:57:47;;;;;;;;;;;;;;;4.29;100.00;100737.66;5111090;28;19911;-65
2023/03/17 01:00:39;;;;;;;;;;;;;;;4.25;100.00;100739.91;5111115;28;20006;-66
2023/03/17 01:03:08;;;;;;;;;;;;;;;4.22;100.00;100740.59;5067948;28;19912;-66
2023/03/17 01:05:33;;;;;;;;;;;;;;;4.20;100.00;100742.19;5067119;28;20413;-66
2023/03/17 01:07:58;;;;;;;;;;;;;;;4.20;100.00;100747.28;5067679;28;19958;-69
2023/03/17 01:10:25;;;;;;;;;;;;;;;4.21;100.00;100744.84;5067653;28;19924;-68
2023/03/17 01:12:54;;;;;;;;;;;;;;;4.21;100.00;100752.50;5067779;28;20011;-70
2023/03/17 01:15:21;;;;;;;;;;;;;;;4.27;100.00;100749.44;5067714;28;20012;-65
2023/03/17 01:17:48;;;;;;;;;;;;;;;4.26;100.00;100746.81;5067745;28;19913;-65
2023/03/17 01:20:18;;;;;;;;;;;;;;;4.31;100.00;100756.56;5066965;28;19916;-65
2023/03/17 01:22:44;;;;;;;;;;;;;;;4.31;100.00;100754.00;5067757;28;19912;-69
2023/03/17 01:25:10;;;;;;;;;;;;;;;4.34;100.00;100754.19;5067184;28;20314;-65
2023/03/17 01:27:36;;;;;;;;;;;;;;;4.37;100.00;100749.31;5067673;28;19920;-68
2023/03/17 01:30:03;;;;;;;;;;;;;;;4.45;100.00;100761.69;5070891;28;19913;-66
2023/03/17 01:32:28;;;;;;;;;;;;;;;4.50;100.00;100763.78;5071281;28;19919;-69
2023/03/17 01:34:53;;;;;;;;;;;;;;;4.53;100.00;100760.53;5071560;28;19912;-65
2023/03/17 01:37:20;;;;;;;;;;;;;;;4.60;100.00;100761.81;5071546;28;20019;-66
2023/03/17 01:39:46;;;;;;;;;;;;;;;4.59;100.00;100766.03;5087957;28;19911;-69
2023/03/17 01:42:12;;;;;;;;;;;;;;;4.67;100.00;100759.78;5103674;28;19919;-70
2023/03/17 01:44:55;;;;;;;;;;;;;;;4.69;100.00;100759.88;5114732;28;20337;-68
2023/03/17 01:47:22;;;;;;;;;;;;;;;4.72;100.00;100754.06;5114187;28;19919;-66
2023/03/17 01:49:48;;;;;;;;;;;;;;;4.67;100.00;100766.53;5114668;28;19969;-67
2023/03/17 01:52:19;;;;;;;;;;;;;;;4.60;100.00;100764.38;5114448;28;19988;-66
2023/03/17 01:54:49;;;;;;;;;;;;;;;4.59;100.00;100771.16;5096263;28;19912;-66
2023/03/17 01:57:22;;;;;;;;;;;;;;;4.63;100.00;100767.13;5114295;28;19918;-68
2023/03/17 01:59:52;;;;;;;;;;;;;;;4.64;100.00;100774.91;5114043;28;19911;-70
2023/03/17 02:02:21;;;;;;;;;;;;;;;4.56;100.00;100777.75;5114009;28;19918;-67
2023/03/17 02:04:47;;;;;;;;;;;;;;;4.50;100.00;100779.09;5114418;28;19912;-66
2023/03/17 02:07:17;;;;;;;;;;;;;;;4.41;100.00;100782.72;5112961;28;19965;-67
2023/03/17 02:09:43;;;;;;;;;;;;;;;4.37;100.00;100781.63;5114748;28;20396;-68
2023/03/17 02:12:09;;;;;;;;;;;;;;;4.31;100.00;100781.22;5113855;28;19994;-66
2023/03/17 02:14:35;;;;;;;;;;;;;;;4.28;100.00;100786.13;5113762;28;20442;-66
2023/03/17 02:17:01;;;;;;;;;;;;;;;4.28;100.00;100783.59;5113854;28;19934;-69
2023/03/17 02:19:27;;;;;;;;;;;;;;;4.33;100.00;100792.44;5114158;28;19915;-70
2023/03/17 02:21:54;;;;;;;;;;;;;;;4.33;100.00;100790.75;5114374;28;19918;-66
2023/03/17 02:24:36;;;;;;;;;;;;;;;4.36;100.00;100787.53;5113602;28;19915;-68
2023/03/17 02:27:05;;;;;;;;;;;;;;;4.42;100.00;100785.38;5113788;28;20013;-67
2023/03/17 02:29:32;;;;;;;;;;;;;;;4.38;100.00;100785.97;5113651;28;19916;-70
2023/03/17 02:31:57;;;;;;;;;;;;;;;4.25;100.00;100784.25;5113912;28;19919;-67
2023/03/17 02:34:23;;;;;;;;;;;;;;;4.17;100.00;100788.84;5113897;28;20385;-69
2023/03/17 02:36:48;;;;;;;;;;;;;;;4.19;100.00;100787.28;5114053;28;20467;-66
2023/03/17 02:39:14;;;;;;;;;;;;;;;4.24;100.00;100786.69;5112056;28;20014;-66
2023/03/17 02:41:39;;;;;;;;;;;;;;;4.32;100.00;100796.66;5103972;28;19955;-66
2023/03/17 02:44:04;;;;;;;;;;;;;;;4.42;100.00;100799.84;5109176;28;19945;-66
2023/03/17 02:46:31;;;;;;;;;;;;;;;4.53;100.00;100793.78;5077226;28;19931;-67
2023/03/17 02:48:57;;;;;;;;;;;;;;;4.59;100.00;100806.97;5113652;28;19912;-69
2023/03/17 02:51:22;;;;;;;;;;;;;;;4.45;100.00;100810.25;5113471;28;19938;-69
2023/03/17 02:53:47;;;;;;;;;;;;;;;4.17;100.00;100819.50;5112824;28;19911;-67
2023/03/17 02:56:13;;;;;;;;;;;;;;;4.11;100.00;100820.75;5113147;28;20399;-70
2023/03/17 02:58:38;;;;;;;;;;;;;;;4.03;100.00;100818.56;5113185;28;19916;-65
2023/03/17 03:01:04;;;;;;;;;;;;;;;4.06;100.00;100817.88;5113378;28;19911;-66
2023/03/17 03:03:29;;;;;;;;;;;;;;;4.09;100.00;100818.09;5113231;28;19908;-66
2023/03/17 03:05:56;;;;;;;;;;;;;;;4.13;100.00;100819.22;5112850;28;19983;-66
2023/03/17 03:08:21;;;;;;;;;;;;;;;4.17;100.00;100824.59;5112409;28;20390;-65
2023/03/17 03:10:47;;;;;;;;;;;;;;;4.19;100.00;100827.28;5112901;28;20003;-65
2023/03/17 03:13:12;;;;;;;;;;;;;;;4.16;100.00;100829.63;5113052;28;20366;-69
2023/03/17 03:15:39;;;;;;;;;;;;;;;4.18;100.00;100834.06;5113252;28;19968;-66
2023/03/17 03:18:05;;;;;;;;;;;;;;;4.31;100.00;100837.44;5112866;28;19912;-66
2023/03/17 03:20:30;;;;;;;;;;;;;;;4.36;100.00;100839.53;5113455;28;19918;-69
2023/03/17 03:22:56;;;;;;;;;;;;;;;4.35;100.00;100826.66;5113049;28;19912;-66
2023/03/17 03:25:21;;;;;;;;;;;;;;;4.21;100.00;100831.72;5113105;28;20316;-69
2023/03/17 03:27:46;;;;;;;;;;;;;;;4.25;100.00;100843.03;5112857;28;20036;-67
2023/03/17 03:30:12;;;;;;;;;;;;;;;4.38;100.00;100835.41;5112804;28;19918;-66
2023/03/17 03:32:37;;;;;;;;;;;;;;;4.41;100.00;100851.75;5113038;28;19911;-70
2023/03/17 03:35:03;;;;;;;;;;;;;;;4.42;100.00;100850.97;5112718;28;19911;-70
2023/03/17 03:37:28;;;;;;;;;;;;;;;4.44;100.00;100845.16;5113022;28;19915;-69
2023/03/17 03:39:53;;;;;;;;;;;;;;;4.37;100.00;100854.09;5112699;28;20932;-66
2023/03/17 03:42:19;;;;;;;;;;;;;;;4.13;100.00;100816.66;5112859;28;19918;-66
2023/03/17 03:44:44;;;;;;;;;;;;;;;4.25;100.00;100845.59;5112761;28;19951;-67
2023/03/17 03:47:10;;;;;;;;;;;;;;;4.19;100.00;100853.72;5112558;28;20361;-66
2023/03/17 03:49:35;;;;;;;;;;;;;;;4.09;100.00;100852.97;5112589;28;19919;-66
2023/03/17 03:52:00;;;;;;;;;;;;;;;4.02;100.00;100855.09;5111522;28;19968;-65
2023/03/17 03:54:26;;;;;;;;;;;;;;;4.01;100.00;100861.03;5112540;28;19915;-66
2023/03/17 03:56:51;;;;;;;;;;;;;;;4.03;100.00;100861.13;5112659;28;19912;-67
2023/03/17 03:59:17;;;;;;;;;;;;;;;4.03;100.00;100862.00;5112488;28;19931;-67
2023/03/17 04:01:42;;;;;;;;;;;;;;;4.05;100.00;100865.56;5112440;28;19912;-66
2023/03/17 04:04:07;;;;;;;;;;;;;;;4.06;100.00;100866.41;5127316;27;20396;-66
2023/03/17 04:06:32;;;;;;;;;;;;;;;3.99;100.00;100875.34;5132962;27;20338;-66
2023/03/17 04:08:58;;;;;;;;;;;;;;;4.03;100.00;100873.88;5132694;27;19983;-71
2023/03/17 04:11:23;;;;;;;;;;;;;;;4.02;100.00;100870.44;5132781;27;20546;-66
2023/03/17 04:13:48;;;;;;;;;;;;;;;4.06;100.00;100876.66;5132864;27;20384;-70
2023/03/17 04:16:15;;;;;;;;;;;;;;;3.97;100.00;100876.00;5132750;27;19961;-70
2023/03/17 04:18:40;;;;;;;;;;;;;;;4.02;100.00;100880.66;5132584;27;19919;-67
2023/03/17 04:21:07;;;;;;;;;;;;;;;3.91;100.00;100893.47;5132480;27;20340;-67
2023/03/17 04:23:32;;;;;;;;;;;;;;;3.92;100.00;100888.47;5131999;27;19917;-66
2023/03/17 04:25:57;;;;;;;;;;;;;;;3.85;100.00;100888.78;5132463;27;19911;-67
2023/03/17 04:28:23;;;;;;;;;;;;;;;3.73;100.00;100894.81;5132264;27;20006;-65
2023/03/17 04:30:48;;;;;;;;;;;;;;;3.66;100.00;100884.06;5131951;27;20043;-67
2023/03/17 04:33:14;;;;;;;;;;;;;;;3.58;100.00;100895.38;5132044;27;19965;-69
2023/03/17 04:35:39;;;;;;;;;;;;;;;3.56;100.00;100897.81;5132497;27;20022;-66
2023/03/17 04:38:05;;;;;;;;;;;;;;;3.56;100.00;100908.03;5132059;27;20296;-66
2023/03/17 04:40:31;;;;;;;;;;;;;;;3.55;100.00;100903.72;5132518;27;19918;-68
2023/03/17 04:42:56;;;;;;;;;;;;;;;3.60;100.00;100906.59;5132405;27;19990;-65
2023/03/17 04:45:21;;;;;;;;;;;;;;;3.54;100.00;100909.63;5129934;27;19962;-66
2023/03/17 04:47:46;;;;;;;;;;;;;;;3.54;100.00;100904.50;5119068;27;19915;-66
2023/03/17 04:50:12;;;;;;;;;;;;;;;3.52;100.00;100913.72;5122136;27;19958;-67
2023/03/17 04:52:37;;;;;;;;;;;;;;;3.51;100.00;100920.47;5112817;27;20006;-67
2023/03/17 04:55:03;;;;;;;;;;;;;;;3.46;100.00;100915.81;5091652;28;19916;-68
2023/03/17 04:57:28;;;;;;;;;;;;;;;3.44;100.00;100915.72;5107324;28;20312;-70
2023/03/17 04:59:54;;;;;;;;;;;;;;;3.46;100.00;100926.03;5111440;28;19915;-67
2023/03/17 05:02:19;;;;;;;;;;;;;;;3.49;100.00;100926.25;5111390;28;20366;-71
2023/03/17 05:04:44;;;;;;;;;;;;;;;3.49;100.00;100928.78;5110779;28;19957;-67
2023/03/17 05:07:13;;;;;;;;;;;;;;;3.54;100.00;100930.91;5074659;28;19973;-71
2023/03/17 05:09:38;;;;;;;;;;;;;;;3.62;100.00;100933.13;5110966;28;19931;-66
2023/03/17 05:12:04;;;;;;;;;;;;;;;3.64;100.00;100936.66;5111414;28;19915;-71
2023/03/17 05:14:29;;;;;;;;;;;;;;;3.61;100.00;100936.47;5111165;28;20296;-67
2023/03/17 05:16:55;;;;;;;;;;;;;;;3.58;100.00;100947.34;5111135;28;19912;-69
2023/03/17 05:19:20;;;;;;;;;;;;;;;3.60;100.00;100947.44;5111543;28;19919;-66
2023/03/17 05:21:46;;;;;;;;;;;;;;;3.42;100.00;100908.72;5110944;28;19919;-70
2023/03/17 05:24:12;;;;;;;;;;;;;;;3.73;100.00;100948.44;5111359;28;20006;-69
2023/03/17 05:26:37;;;;;;;;;;;;;;;3.84;100.00;100958.56;5119448;28;20369;-67
2023/03/17 05:29:02;;;;;;;;;;;;;;;3.91;100.00;100954.78;5131736;28;19933;-71
2023/03/17 05:31:29;;;;;;;;;;;;;;;3.98;100.00;100954.44;5131756;28;20296;-67
2023/03/17 05:33:55;;;;;;;;;;;;;;;4.04;100.00;100959.97;5131538;28;20365;-68
2023/03/17 05:36:20;;;;;;;;;;;;;;;4.08;100.00;100956.84;5131342;28;19922;-70
2023/03/17 05:38:45;;;;;;;;;;;;;;;4.19;100.00;100955.94;5131933;28;19918;-70
2023/03/17 05:41:11;;;;;;;;;;;;;;;4.27;100.00;100965.81;5131625;28;20002;-70
2023/03/17 05:43:37;;;;;;;;;;;;;;;4.38;100.00;100968.34;5131323;28;20373;-67
2023/03/17 05:46:03;;;;;;;;;;;;;;;4.46;100.00;100970.53;5131216;28;20436;-68
2023/03/17 05:48:28;;;;;;;;;;;;;;;4.51;100.00;100967.53;5131428;28;19915;-67
2023/03/17 05:50:54;;;;;;;;;;;;;;;4.56;100.00;100978.09;5131168;28;20277;-67
2023/03/17 05:53:19;;;;;;;;;;;;;;;4.49;100.00;100983.56;5131458;28;19911;-67
2023/03/17 05:55:44;;;;;;;;;;;;;;;4.51;100.00;100979.41;5131872;28;19912;-68
2023/03/17 05:58:10;;;;;;;;;;;;;;;4.59;100.00;100988.53;5131550;28;19943;-66
2023/03/17 06:00:36;;;;;;;;;;;;;;;4.61;100.00;100986.97;5131290;28;19931;-67
2023/03/17 06:03:02;;;;;;;;;;;;;;;4.61;100.00;100992.09;5131783;28;20582;-71
2023/03/17 06:05:28;;;;;;;;;;;;;;;4.66;100.00;100994.94;5131098;28;20399;-70
2023/03/17 06:07:53;;;;;;;;;;;;;;;4.74;100.00;100990.38;5131653;28;19915;-67
2023/03/17 06:10:18;;;;;;;;;;;;;;;4.85;100.00;100995.44;5131712;28;19916;-70
2023/03/17 06:12:44;;;;;;;;;;;;;;;4.95;100.00;100996.94;5131468;28;19917;-68
2023/03/17 06:15:09;;;;;;;;;;;;;;;5.02;100.00;100999.16;5131505;27;19966;-67
2023/03/17 06:17:35;;;;;;;;;;;;;;;5.12;100.00;100998.09;5135202;27;20368;-67
2023/03/17 06:20:00;;;;;;;;;;;;;;;5.17;100.00;100993.25;5134925;27;19911;-70
2023/03/17 06:22:26;;;;;;;;;;;;;;;5.22;100.00;100999.59;5135059;27;19918;-66
2023/03/17 06:24:52;;;;;;;;;;;;;;;5.15;100.00;101011.09;5135340;27;20432;-70
2023/03/17 06:27:17;;;;;;;;;;;;;;;5.18;100.00;101012.97;5134828;27;19918;-67
2023/03/17 06:29:42;;;;;;;;;;;;;;;5.15;100.00;101020.44;5134748;27;19921;-66
2023/03/17 06:32:08;;;;;;;;;;;;;;;5.15;100.00;101017.88;5098641;27;19979;-70
2023/03/17 06:34:33;;;;;;;;;;;;;;;5.10;100.00;101019.25;5134269;27;19966;-69
2023/03/17 06:36:58;;;;;;;;;;;;;;;5.14;100.00;101024.66;5134872;27;19922;-66
2023/03/17 06:39:24;;;;;;;;;;;;;;;5.17;100.00;101022.31;5116435;27;19915;-66
2023/03/17 06:41:49;;;;;;;;;;;;;;;5.14;100.00;101027.22;5134607;27;19915;-66
2023/03/17 06:44:14;;;;;;;;;;;;;;;5.17;100.00;101031.66;5134722;27;19911;-67
2023/03/17 06:46:40;;;;;;;;;;;;;;;5.12;100.00;101025.34;5134503;27;19913;-66
2023/03/17 06:49:06;;;;;;;;;;;;;;;5.23;100.00;101033.75;5134973;27;20293;-66
2023/03/17 06:51:33;;;;;;;;;;;;;;;5.24;100.00;101036.41;5134316;27;20399;-67
2023/03/17 06:53:58;;;;;;;;;;;;;;;5.18;100.00;101034.34;5134201;27;20313;-67
2023/03/17 06:56:24;;;;;;;;;;;;;;;5.29;100.00;101034.16;5134378;27;19968;-69
2023/03/17 06:58:50;;;;;;;;;;;;;;;5.33;100.00;101041.25;5134262;27;20278;-70
2023/03/17 07:01:16;;;;;;;;;;;;;;;5.27;100.00;101041.75;5134201;27;19911;-70
2023/03/17 07:03:42;;;;;;;;;;;;;;;5.32;100.00;101042.94;5133982;27;20438;-67
2023/03/17 07:06:07;;;;;;;;;;;;;;;5.32;100.00;101050.63;5134210;27;20006;-67
2023/03/17 07:08:33;;;;;;;;;;;;;;;5.35;100.00;101049.94;5134130;27;20006;-67
2023/03/17 07:10:59;;;;;;;;;;;;;;;5.39;100.00;101045.94;5134300;27;20019;-68
2023/03/17 07:13:24;;;;;;;;;;;;;;;5.39;100.00;101049.34;5134151;27;19912;-68
2023/03/17 07:15:50;;;;;;;;;;;;;;;5.44;100.00;101050.56;5134155;27;20289;-65
2023/03/17 07:18:15;;;;;;;;;;;;;;;5.49;100.00;101050.88;5134180;27;19912;-64
2023/03/17 07:20:42;;;;;;;;;;;;;;;5.50;100.00;101043.28;5115450;27;20324;-65
2023/03/17 07:23:15;;;;;;;;;;;;;;;5.53;100.00;101047.72;5134099;27;19911;-65
2023/03/17 07:25:42;;;;;;;;;;;;;;;5.50;100.00;101050.97;5133864;27;19919;-65
2023/03/17 07:28:08;;;;;;;;;;;;;;;5.57;100.00;101044.59;5133498;27;20316;-66
2023/03/17 07:30:33;;;;;;;;;;;;;;;5.72;100.00;101037.03;5133435;27;19912;-65
2023/03/17 07:32:58;;;;;;;;;;;;;;;5.79;100.00;101041.75;5133754;27;20060;-65
2023/03/17 07:35:24;;;;;;;;;;;;;;;5.80;100.00;101042.66;5133860;27;20409;-66
2023/03/17 07:37:49;;;;;;;;;;;;;;;5.89;100.00;101039.81;5133582;27;19911;-67
2023/03/17 07:40:17;;;;;;;;;;;;;;;5.93;100.00;101039.19;5133365;27;19917;-67
2023/03/17 07:42:44;;;;;;;;;;;;;;;5.94;100.00;101047.00;5133441;27;19967;-69
2023/03/17 07:45:09;;;;;;;;;;;;;;;6.04;100.00;101042.50;5133321;27;19915;-67
2023/03/17 07:47:35;;;;;;;;;;;;;;;6.07;100.00;101048.72;5132990;27;20407;-66
2023/03/17 07:50:00;;;;;;;;;;;;;;;6.06;100.00;101046.06;5133397;27;19941;-67
2023/03/17 07:52:25;;;;;;;;;;;;;;;6.12;100.00;101043.91;5133261;27;19912;-66
2023/03/17 07:54:51;;;;;;;;;;;;;;;6.31;100.00;101045.94;5133181;27;19911;-65
2023/03/17 07:57:17;;;;;;;;;;;;;;;6.41;100.00;101044.84;5133160;27;19927;-66
2023/03/17 07:59:43;;;;;;;;;;;;;;;6.42;100.00;101052.63;5132994;27;20042;-65
2023/03/17 08:02:18;;;;;;;;;;;;;;;6.42;100.00;101046.63;5133161;27;19959;-65
2023/03/17 08:04:44;;;;;;;;;;;;;;;6.36;98.77;101042.00;5132998;27;19918;-65
2023/03/17 08:07:09;;;;;;;;;;;;;;;6.43;100.00;101048.38;5132807;27;19915;-67
2023/03/17 08:09:36;;;;;;;;;;;;;;;6.48;100.00;101055.59;5133035;27;19962;-66
2023/03/17 08:12:02;;;;;;;;;;;;;;;6.48;98.68;101050.44;5127588;27;19980;-67
2023/03/17 08:14:27;;;;;;;;;;;;;;;6.57;99.39;101054.41;5112137;28;19912;-69
2023/03/17 08:16:53;;;;;;;;;;;;;;;6.56;97.50;101061.19;5112080;28;20002;-65
2023/03/17 08:19:18;;;;;;;;;;;;;;;6.50;97.15;101065.94;5112298;28;19918;-69
2023/03/17 08:21:43;;;;;;;;;;;;;;;6.54;96.33;101057.66;5112188;28;19911;-65
2023/03/17 08:24:09;;;;;;;;;;;;;;;6.62;96.69;101068.41;5111904;28;19918;-65
2023/03/17 08:26:35;;;;;;;;;;;;;;;6.66;97.23;101054.97;5112182;28;19912;-67
2023/03/17 08:29:00;;;;;;;;;;;;;;;6.73;99.47;101061.34;5111437;28;19919;-66
2023/03/17 08:31:26;;;;;;;;;;;;;;;6.90;97.10;101059.81;5111690;28;19998;-68
2023/03/17 08:33:52;;;;;;;;;;;;;;;7.13;97.60;101056.09;5111707;28;19915;-67
2023/03/17 08:36:18;;;;;;;;;;;;;;;7.36;96.57;101046.31;5112151;28;19912;-66
2023/03/17 08:38:44;;;;;;;;;;;;;;;7.52;97.34;101061.81;5111120;28;19965;-66
2023/03/17 08:41:12;;;;;;;;;;;;;;;7.62;94.70;101045.25;5111877;28;20002;-69
2023/03/17 08:43:38;;;;;;;;;;;;;;;7.63;92.40;101054.75;5111600;28;19912;-67
2023/03/17 08:46:05;;;;;;;;;;;;;;;7.82;95.29;101048.09;5068584;28;19920;-65
2023/03/17 08:48:31;;;;;;;;;;;;;;;8.00;95.92;101040.53;5068613;28;19934;-67
2023/03/17 08:50:56;;;;;;;;;;;;;;;8.14;91.45;101049.03;5068891;28;20461;-65
2023/03/17 08:53:22;;;;;;;;;;;;;;;8.32;91.00;101038.88;5068998;28;19916;-65
2023/03/17 08:55:47;;;;;;;;;;;;;;;8.21;91.21;101038.28;5068777;28;19959;-69
2023/03/17 08:58:13;;;;;;;;;;;;;;;8.21;90.90;101040.84;5068782;28;19943;-66
2023/03/17 09:00:39;;;;;;;;;;;;;;;8.36;92.37;101036.59;5068323;28;19965;-69
2023/03/17 09:03:04;;;;;;;;;;;;;;;8.42;90.58;101047.22;5068629;28;19912;-66
2023/03/17 09:05:30;;;;;;;;;;;;;;;8.60;90.84;101036.19;5068642;28;19916;-68
2023/03/17 09:07:55;;;;;;;;;;;;;;;8.80;89.78;101032.09;5068281;28;19916;-67
2023/03/17 09:10:22;;;;;;;;;;;;;;;8.90;91.07;101031.75;5068548;28;20007;-66
2023/03/17 09:12:48;;;;;;;;;;;;;;;8.92;91.08;101034.41;5068311;28;19985;-66
2023/03/17 09:15:13;;;;;;;;;;;;;;;8.88;90.83;101035.06;5068368;28;20382;-69
2023/03/17 09:17:40;;;;;;;;;;;;;;;8.88;90.82;101035.97;5100761;28;19912;-69
2023/03/17 09:20:05;;;;;;;;;;;;;;;8.76;88.34;101035.31;5111467;28;20068;-65
2023/03/17 09:22:31;;;;;;;;;;;;;;;8.81;89.12;101035.53;5111357;28;19963;-71
2023/03/17 09:24:57;;;;;;;;;;;;;;;8.80;87.86;101041.50;5111174;28;19908;-68
2023/03/17 09:27:22;;;;;;;;;;;;;;;8.99;91.40;101035.63;5075435;28;20370;-65
2023/03/17 09:29:47;;;;;;;;;;;;;;;9.01;87.39;101034.91;5111287;28;19958;-69
2023/03/17 09:32:12;;;;;;;;;;;;;;;9.16;89.54;101039.97;5093092;28;20297;-67
2023/03/17 09:34:38;;;;;;;;;;;;;;;9.35;88.41;101043.50;5111158;28;19912;-69
2023/03/17 09:37:03;;;;;;;;;;;;;;;9.50;83.48;101052.00;5111258;28;19912;-66
2023/03/17 09:39:28;;;;;;;;;;;;;;;9.60;85.56;101047.31;5110862;28;19919;-69
2023/03/17 09:41:55;;;;;;;;;;;;;;;9.75;87.05;101044.63;5092946;28;19990;-69
2023/03/17 09:44:40;;;;;;;;;;;;;;;9.70;84.11;101044.38;5111062;28;19912;-67
2023/03/17 09:47:24;;;;;;;;;;;;;;;9.67;84.41;101050.28;5111099;28;19920;-66
2023/03/17 09:49:57;;;;;;;;;;;;;;;9.80;81.60;101050.88;5112431;28;19939;-66
2023/03/17 09:52:30;;;;;;;;;;;;;;;9.94;81.73;101052.44;5115296;28;19915;-66
2023/03/17 09:54:55;;;;;;;;;;;;;;;9.97;83.75;101043.97;5078679;28;19911;-70
2023/03/17 09:57:25;;;;;;;;;;;;;;;10.03;84.47;101045.16;5115183;28;19915;-66
2023/03/17 10:00:00;;;;;;;;;;;;;;;9.69;83.56;101052.94;5114879;28;19908;-66
2023/03/17 10:02:33;;;;;;;;;;;;;;;9.62;82.35;101054.31;5114826;28;19994;-69
2023/03/17 10:05:19;;;;;;;;;;;;;;;9.61;83.00;101051.66;5114632;28;19908;-66
2023/03/17 10:08:03;;;;;;;;;;;;;;;9.64;81.95;101044.94;5115002;28;19915;-67
2023/03/17 10:10:41;;;;;;;;;;;;;;;9.65;82.23;101056.16;5114511;28;19923;-70
2023/03/17 10:13:20;;;;;;;;;;;;;;;9.41;82.63;101054.13;5114796;28;20292;-70
2023/03/17 10:15:51;;;;;;;;;;;;;;;9.58;85.25;101048.94;5114644;28;19915;-67
2023/03/17 10:18:17;;;;;;;;;;;;;;;9.77;83.82;101043.00;5114539;28;19912;-69
2023/03/17 10:20:47;;;;;;;;;;;;;;;9.94;84.88;101038.66;5114524;28;19908;-71
2023/03/17 10:23:15;;;;;;;;;;;;;;;9.94;83.45;101043.81;5114474;28;19915;-69
2023/03/17 10:25:41;;;;;;;;;;;;;;;9.95;83.22;101036.16;5114384;28;19994;-68
2023/03/17 10:28:18;;;;;;;;;;;;;;;10.19;83.31;101031.31;5114020;28;20006;-66
2023/03/17 10:30:44;;;;;;;;;;;;;;;10.45;79.99;101030.78;5114583;28;19962;-66
2023/03/17 10:33:10;;;;;;;;;;;;;;;10.45;80.40;101035.94;5113953;28;19911;-66
2023/03/17 10:35:38;;;;;;;;;;;;;;;10.46;80.05;101032.56;5113860;27;19972;-69
2023/03/17 10:38:15;;;;;;;;;;;;;;;10.80;82.42;101032.41;5114179;28;20006;-70
2023/03/17 10:40:43;;;;;;;;;;;;;;;10.98;81.32;101026.28;5114259;28;19922;-66
2023/03/17 10:43:15;;;;;;;;;;;;;;;11.19;82.14;101025.44;5114052;28;20313;-69
2023/03/17 10:45:46;;;;;;;;;;;;;;;11.44;77.93;101020.53;5114249;28;19959;-67
2023/03/17 10:48:16;;;;;;;;;;;;;;;11.70;80.43;101014.66;5114256;28;20285;-71
2023/03/17 10:50:41;;;;;;;;;;;;;;;11.68;78.15;101012.00;5114532;28;19912;-66
2023/03/17 10:53:18;;;;;;;;;;;;;;;11.60;78.71;100996.19;5113625;28;20342;-69
2023/03/17 10:55:53;;;;;;;;;;;;;;;11.39;81.04;101000.44;5113728;28;19911;-67
2023/03/17 10:58:18;;;;;;;;;;;;;;;10.93;79.07;101009.69;5113884;28;19918;-67
2023/03/17 11:01:06;;;;;;;;;;;;;;;10.34;81.51;101009.59;5113575;28;19915;-69
2023/03/17 11:03:34;;;;;;;;;;;;;;;10.01;82.22;101015.81;5113426;28;19920;-65
2023/03/17 11:06:05;;;;;;;;;;;;;;;9.81;81.60;101009.69;5113808;28;19912;-71
2023/03/17 11:08:34;;;;;;;;;;;;;;;10.20;82.94;101003.78;5113468;28;19920;-69
2023/03/17 11:11:03;;;;;;;;;;;;;;;10.51;81.94;101002.69;5113407;28;19972;-70
2023/03/17 11:13:29;;;;;;;;;;;;;;;10.91;81.94;100995.84;5113370;28;19918;-67
2023/03/17 11:16:17;;;;;;;;;;;;;;;10.62;77.43;101003.16;5095238;28;19919;-69
2023/03/17 11:18:43;;;;;;;;;;;;;;;10.34;81.97;100999.28;5030247;28;19913;-67
2023/03/17 11:21:10;;;;;;;;;;;;;;;10.13;80.49;100994.00;5030406;28;19932;-68
2023/03/17 11:23:50;;;;;;;;;;;;;;;10.22;81.17;100999.59;5030507;28;19917;-67
2023/03/17 11:26:18;;;;;;;;;;;;;;;9.98;77.66;100999.31;5030249;28;19917;-68
2023/03/17 11:28:50;;;;;;;;;;;;;;;9.88;79.73;100997.97;5030267;28;20020;-68
2023/03/17 11:31:24;;;;;;;;;;;;;;;9.86;81.43;100997.91;5030437;28;19917;-66
2023/03/17 11:33:53;;;;;;;;;;;;;;;10.29;78.17;101000.75;5030140;28;19913;-70
2023/03/17 11:36:37;;;;;;;;;;;;;;;10.82;78.66;100991.16;5030225;28;19920;-66
2023/03/17 11:39:11;;;;;;;;;;;;;;;11.32;80.70;100974.34;5030043;28;19913;-66
2023/03/17 11:41:43;;;;;;;;;;;;;;;11.42;78.65;100982.50;5029984;28;20708;-67
2023/03/17 11:44:28;;;;;;;;;;;;;;;11.09;77.29;100986.31;5029964;28;19920;-68
2023/03/17 11:46:53;;;;;;;;;;;;;;;10.65;76.12;100988.72;5030108;28;19959;-65
2023/03/17 11:49:21;;;;;;;;;;;;;;;10.30;78.73;100981.88;5029946;28;19956;-67
2023/03/17 11:52:05;;;;;;;;;;;;;;;10.09;79.77;100984.34;5030006;28;19947;-70
2023/03/17 11:54:40;;;;;;;;;;;;;;;9.90;80.46;100980.03;5029797;28;19935;-69
2023/03/17 11:57:12;;;;;;;;;;;;;;;9.76;79.39;100980.22;5112607;28;20412;-69
2023/03/17 11:59:51;;;;;;;;;;;;;;;9.84;78.47;100976.34;5112636;28;20289;-68
2023/03/17 12:02:19;;;;;;;;;;;;;;;10.39;78.98;100982.31;5112512;28;20279;-69
2023/03/17 12:05:05;;;;;;;;;;;;;;;10.83;77.93;100978.28;5112465;28;20313;-69
2023/03/17 12:07:30;;;;;;;;;;;;;;;11.10;77.67;100969.09;5029419;28;19917;-66
2023/03/17 12:10:00;;;;;;;;;;;;;;;10.82;74.28;100975.66;5029587;28;20295;-68
2023/03/17 12:12:39;;;;;;;;;;;;;;;10.55;73.29;100973.59;5029249;28;19932;-69
2023/03/17 12:15:10;;;;;;;;;;;;;;;10.39;74.74;100977.16;5011453;28;19921;-66
2023/03/17 12:17:42;;;;;;;;;;;;;;;10.27;74.50;100974.88;5029265;28;20015;-69
2023/03/17 12:20:17;;;;;;;;;;;;;;;10.39;73.74;100977.16;5029573;28;19920;-69
2023/03/17 12:22:56;;;;;;;;;;;;;;;10.38;73.21;100971.94;4996206;28;19913;-66
2023/03/17 12:25:26;;;;;;;;;;;;;;;10.35;74.89;100968.41;5029149;28;19913;-67
2023/03/17 12:28:04;;;;;;;;;;;;;;;10.36;73.94;100965.00;5029172;28;19963;-66
2023/03/17 12:30:34;;;;;;;;;;;;;;;10.42;76.31;100961.84;5029454;28;19991;-67
2023/03/17 12:32:59;;;;;;;;;;;;;;;10.33;73.73;100964.84;5028833;28;20308;-69
2023/03/17 12:35:30;;;;;;;;;;;;;;;10.17;73.70;100970.13;5029087;28;19947;-69
2023/03/17 12:37:57;;;;;;;;;;;;;;;10.12;75.46;100962.16;5028921;28;19917;-70
2023/03/17 12:40:28;;;;;;;;;;;;;;;10.10;73.48;100968.06;5028921;28;20029;-69